Time;durP1;ratioP1;P1;durP2;ratioP2;P2;SDS_P1;SDS_P2;PMS_P1;PMS_P2;Temp;Humidity;BMP_temperature;BMP_pressure;BME280_temperature;BME280_humidity;BME280_pressure;Samples;Min_cycle;Max_cycle;Signal;HPM_P1;HPM_P2
2021/09/30 00:01:24;;;;;;;6.40;5.05;;;;;;;;;;4994526;28;20022;-82
2021/09/30 00:03:49;;;;;;;7.03;5.35;;;;;;;;;;5011327;28;20144;-82
2021/09/30 00:06:15;;;;;;;11.98;5.03;;;;;;;;;;5011883;28;20081;-82
2021/09/30 00:08:40;;;;;;;4.50;3.70;;;;;;;;;;4993528;28;20037;-82
2021/09/30 00:11:10;;;;;;;6.65;4.88;;;;;;;;;;4993437;28;20116;-82
2021/09/30 00:13:42;;;;;;;5.43;4.53;;;;;;;;;;4994090;28;20445;-82
2021/09/30 00:32:46;;;;;;;5.55;4.40;;;;;;;;;;5011384;28;20504;-82
2021/09/30 00:46:22;;;;;;;9.70;6.45;;;;;;;;;;4969201;28;20072;-82
2021/09/30 01:31:42;;;;;;;7.90;7.10;;;;;;;;;;5002904;28;20041;-82
2021/09/30 02:59:24;;;;;;;13.23;9.82;;;;;;;;;;4994842;28;20040;-81
2021/09/30 03:01:50;;;;;;;10.18;8.02;;;;;;;;;;5032032;28;20401;-81
2021/09/30 03:04:17;;;;;;;10.48;8.02;;;;;;;;;;5014571;28;20030;-81
2021/09/30 03:06:42;;;;;;;15.55;8.07;;;;;;;;;;5031701;28;20100;-81
2021/09/30 03:09:09;;;;;;;12.60;7.07;;;;;;;;;;5032488;28;20098;-81
2021/09/30 03:11:37;;;;;;;11.40;7.07;;;;;;;;;;5013849;28;20116;-82
2021/09/30 03:14:03;;;;;;;18.58;6.40;;;;;;;;;;5032394;28;20022;-81
2021/09/30 03:19:16;;;;;;;15.75;4.88;;;;;;;;;;5032522;28;20033;-81
2021/09/30 03:24:26;;;;;;;22.40;3.17;;;;;;;;;;5032205;28;20044;-81
2021/09/30 03:26:52;;;;;;;34.13;3.45;;;;;;;;;;5014185;28;20029;-82
2021/09/30 03:29:17;;;;;;;26.55;3.03;;;;;;;;;;5015620;28;20017;-81
2021/09/30 03:31:44;;;;;;;18.63;3.25;;;;;;;;;;5032398;28;20484;-81
2021/09/30 03:34:09;;;;;;;24.05;3.40;;;;;;;;;;5031519;28;20416;-80
2021/09/30 03:36:35;;;;;;;28.58;3.55;;;;;;;;;;5031088;28;20032;-80
2021/09/30 03:39:01;;;;;;;55.85;5.05;;;;;;;;;;5030902;28;20065;-80
2021/09/30 03:41:26;;;;;;;94.65;6.00;;;;;;;;;;5013159;28;20029;-80
2021/09/30 03:43:51;;;;;;;97.80;5.97;;;;;;;;;;5013845;28;20052;-81
2021/09/30 03:46:16;;;;;;;61.95;5.13;;;;;;;;;;5031367;28;20666;-80
2021/09/30 03:48:50;;;;;;;36.15;3.30;;;;;;;;;;5013020;28;20057;-81
2021/09/30 03:51:23;;;;;;;21.08;3.40;;;;;;;;;;5013465;28;20029;-81
2021/09/30 03:56:34;;;;;;;55.83;5.13;;;;;;;;;;5031364;28;20064;-81
2021/09/30 03:59:18;;;;;;;56.58;3.38;;;;;;;;;;5031773;28;20029;-81
2021/09/30 04:01:44;;;;;;;41.72;4.15;;;;;;;;;;5014293;28;20239;-82
2021/09/30 04:04:09;;;;;;;47.05;5.32;;;;;;;;;;5013995;28;20436;-81
2021/09/30 04:06:34;;;;;;;24.67;4.75;;;;;;;;;;5031272;28;20033;-82
2021/09/30 04:08:59;;;;;;;38.53;4.20;;;;;;;;;;5013677;28;20025;-82
2021/09/30 04:11:25;;;;;;;34.80;5.40;;;;;;;;;;5013169;28;20276;-83
2021/09/30 04:13:50;;;;;;;58.60;5.22;;;;;;;;;;5031122;28;20683;-83
2021/09/30 04:16:15;;;;;;;42.87;5.00;;;;;;;;;;5015003;28;20473;-83
2021/09/30 04:18:40;;;;;;;53.55;6.03;;;;;;;;;;5015039;28;20359;-84
2021/09/30 04:21:05;;;;;;;73.13;5.53;;;;;;;;;;5035236;28;20036;-84
2021/09/30 04:23:30;;;;;;;79.07;7.23;;;;;;;;;;5034806;28;20271;-84
2021/09/30 04:25:56;;;;;;;92.30;6.83;;;;;;;;;;5016680;28;20260;-84
2021/09/30 04:28:21;;;;;;;66.05;6.13;;;;;;;;;;5016575;28;20756;-84
2021/09/30 04:30:47;;;;;;;37.13;5.05;;;;;;;;;;5016708;28;20164;-84
2021/09/30 04:33:12;;;;;;;69.68;6.10;;;;;;;;;;5017211;28;20017;-84
2021/09/30 04:35:37;;;;;;;63.67;6.93;;;;;;;;;;5016448;28;20029;-84
2021/09/30 04:38:06;;;;;;;56.28;5.53;;;;;;;;;;5016215;28;20056;-84
2021/09/30 04:40:32;;;;;;;40.83;4.72;;;;;;;;;;5034243;28;20067;-85
2021/09/30 04:42:57;;;;;;;64.53;6.82;;;;;;;;;;5034590;28;20057;-85
2021/09/30 04:45:22;;;;;;;41.33;7.10;;;;;;;;;;5034247;28;20025;-86
2021/09/30 04:47:47;;;;;;;60.08;7.65;;;;;;;;;;5015299;28;20520;-85
2021/09/30 04:50:13;;;;;;;50.15;7.00;;;;;;;;;;5033144;28;20384;-85
2021/09/30 04:52:38;;;;;;;45.47;8.00;;;;;;;;;;5015551;28;20377;-85
2021/09/30 04:55:04;;;;;;;65.93;6.50;;;;;;;;;;5033491;28;20136;-85
2021/09/30 04:57:29;;;;;;;64.43;7.88;;;;;;;;;;5033458;28;20032;-86
2021/09/30 04:59:54;;;;;;;83.13;7.43;;;;;;;;;;5015664;28;20495;-85
2021/09/30 05:02:19;;;;;;;48.92;8.38;;;;;;;;;;5015660;28;20128;-85
2021/09/30 05:04:45;;;;;;;60.53;7.68;;;;;;;;;;5033396;28;20461;-85
2021/09/30 05:07:10;;;;;;;42.35;6.43;;;;;;;;;;5033330;28;20065;-85
2021/09/30 05:09:35;;;;;;;62.60;9.07;;;;;;;;;;5015912;28;20025;-84
2021/09/30 05:12:03;;;;;;;66.70;6.93;;;;;;;;;;5032996;28;20021;-85
2021/09/30 05:14:28;;;;;;;82.70;9.02;;;;;;;;;;5015551;28;20343;-84
2021/09/30 05:16:53;;;;;;;55.60;6.85;;;;;;;;;;5015195;28;20117;-85
2021/09/30 05:19:18;;;;;;;45.55;5.53;;;;;;;;;;5014986;28;20048;-84
2021/09/30 05:21:44;;;;;;;74.65;6.80;;;;;;;;;;5014980;28;20029;-85
2021/09/30 05:24:09;;;;;;;71.95;9.57;;;;;;;;;;5033091;28;20064;-85
2021/09/30 05:26:35;;;;;;;76.88;8.73;;;;;;;;;;5015011;28;20049;-85
2021/09/30 05:29:03;;;;;;;55.10;8.18;;;;;;;;;;5015218;28;20025;-85
2021/09/30 05:31:28;;;;;;;48.08;7.15;;;;;;;;;;5032551;28;20036;-86
2021/09/30 05:33:54;;;;;;;39.83;6.68;;;;;;;;;;5032817;28;20366;-85
2021/09/30 05:36:19;;;;;;;49.75;7.68;;;;;;;;;;5032689;28;20018;-85
2021/09/30 05:38:45;;;;;;;41.33;4.88;;;;;;;;;;5014660;28;20026;-86
2021/09/30 05:41:10;;;;;;;33.22;4.72;;;;;;;;;;5032767;28;20100;-86
2021/09/30 05:43:37;;;;;;;28.85;4.40;;;;;;;;;;5033283;28;20559;-85
2021/09/30 05:46:04;;;;;;;32.75;4.93;;;;;;;;;;5032909;28;20021;-85
2021/09/30 05:48:29;;;;;;;20.80;3.22;;;;;;;;;;5032479;28;20053;-85
2021/09/30 05:50:55;;;;;;;73.22;4.93;;;;;;;;;;5032413;28;20384;-85
2021/09/30 05:53:20;;;;;;;40.35;4.53;;;;;;;;;;5014739;28;20640;-86
2021/09/30 05:55:46;;;;;;;39.53;5.63;;;;;;;;;;5032407;28;20100;-86
2021/09/30 05:58:12;;;;;;;36.05;5.07;;;;;;;;;;5014305;28;20017;-86
2021/09/30 06:16:12;;;;;;;47.58;6.07;;;;;;;;;;5032437;28;20051;-86
2021/09/30 06:18:38;;;;;;;32.55;5.07;;;;;;;;;;5014337;28;20025;-86
2021/09/30 06:23:33;;;;;;;0.30;0.30;;;;;;;;;;5023844;28;20057;-86
2021/09/30 06:26:00;;;;;;;2.30;1.00;;;;;;;;;;5014026;28;20490;-86
2021/09/30 06:28:25;;;;;;;0.90;0.90;;;;;;;;;;5014070;28;20079;-87
2021/09/30 06:30:51;;;;;;;6.37;1.40;;;;;;;;;;5046511;23;20849;-87
2021/09/30 06:33:19;;;;;;;2.60;1.38;;;;;;;;;;5032765;23;20370;-87
2021/09/30 06:35:45;;;;;;;0.70;0.70;;;;;;;;;;5060268;23;20064;-87
2021/09/30 06:38:11;;;;;;;0.77;0.77;;;;;;;;;;5032439;28;20388;-87
2021/09/30 06:40:36;;;;;;;0.60;0.60;;;;;;;;;;5013545;28;20900;-87
2021/09/30 06:43:01;;;;;;;0.28;0.28;;;;;;;;;;5031250;28;20268;-86
2021/09/30 06:45:29;;;;;;;13.55;2.58;;;;;;;;;;5024215;23;20060;-87
2021/09/30 06:47:59;;;;;;;2.47;1.52;;;;;;;;;;5030136;28;20389;-88
2021/09/30 06:50:31;;;;;;;1.38;1.27;;;;;;;;;;5011740;28;20059;-87
2021/09/30 06:53:04;;;;;;;4.35;1.45;;;;;;;;;;5011242;28;20041;-87
2021/09/30 06:55:30;;;;;;;0.40;0.40;;;;;;;;;;5054880;23;20068;-87
2021/09/30 07:02:56;;;;;;;;;;;;;;;;;;4756017;22;20481;-87
2021/09/30 07:24:39;;;;;;;0.82;0.82;;;;;;;;;;4568859;23;20045;-88
2021/09/30 07:29:45;;;;;;;0.63;0.63;;;;;;;;;;4670004;23;20527;-88
2021/09/30 07:32:14;;;;;;;11.77;1.85;;;;;;;;;;4264929;23;20108;-89
2021/09/30 07:34:46;;;;;;;0.45;0.45;;;;;;;;;;5085133;23;20053;-88
2021/09/30 07:47:31;;;;;;;6.03;2.00;;;;;;;;;;4957705;23;20715;31
2021/09/30 07:50:13;;;;;;;2.22;0.98;;;;;;;;;;4351237;23;20132;-88
2021/09/30 08:06:40;;;;;;;1.33;1.30;;;;;;;;;;5252733;23;20139;-88
2021/09/30 08:19:21;;;;;;;0.30;0.30;;;;;;;;;;4632910;23;20054;-88
2021/09/30 08:24:25;;;;;;;0.95;0.90;;;;;;;;;;4088906;22;20272;-88
2021/09/30 08:29:19;;;;;;;0.30;0.30;;;;;;;;;;5099822;23;20148;-88
2021/09/30 08:31:45;;;;;;;0.30;0.30;;;;;;;;;;5303915;23;20140;-87
2021/09/30 08:34:11;;;;;;;0.30;0.30;;;;;;;;;;4139975;23;22002;-88
2021/09/30 08:39:08;;;;;;;0.65;0.60;;;;;;;;;;5213769;22;20057;-88
2021/09/30 08:41:34;;;;;;;3.40;1.67;;;;;;;;;;5239135;23;20058;-89
2021/09/30 09:00:05;;;;;;;0.88;0.88;;;;;;;;;;5284067;23;20061;-89
2021/09/30 09:10:56;;;;;;;1.02;0.95;;;;;;;;;;4152055;23;20298;-87
2021/09/30 09:26:50;;;;;;;1.48;1.30;;;;;;;;;;5428690;23;20407;31
2021/09/30 09:29:23;;;;;;;0.40;0.40;;;;;;;;;;5063198;23;20017;-89
2021/09/30 09:39:42;;;;;;;0.50;0.50;;;;;;;;;;5491741;22;20756;-89
2021/09/30 09:42:14;;;;;;;0.40;0.40;;;;;;;;;;5685362;23;20013;-89
2021/09/30 09:50:04;;;;;;;0.50;0.50;;;;;;;;;;5796443;22;20224;-90
2021/09/30 18:53:59;;;;;;;0.70;0.70;;;;;;;;;;4909364;22;20242;31
2021/09/30 19:08:03;;;;;;;0.40;0.40;;;;;;;;;;5203393;23;20020;-92
2021/09/30 19:10:30;;;;;;;6.35;0.75;;;;;;;;;;4998896;28;20344;-91
2021/09/30 19:15:26;;;;;;;0.60;0.60;;;;;;;;;;5182463;22;20056;-92
2021/09/30 19:23:00;;;;;;;1.83;1.17;;;;;;;;;;5296151;22;20052;-92
2021/09/30 19:27:58;;;;;;;0.30;0.30;;;;;;;;;;5726978;22;20064;-93
2021/09/30 19:30:25;;;;;;;0.73;0.73;;;;;;;;;;5081796;28;20031;-92
2021/09/30 19:35:27;;;;;;;0.30;0.30;;;;;;;;;;5325778;22;20060;-91
2021/09/30 19:37:53;;;;;;;0.30;0.30;;;;;;;;;;5069564;28;20472;-92
2021/09/30 19:42:54;;;;;;;0.40;0.40;;;;;;;;;;5442931;22;20056;-91
2021/09/30 19:45:20;;;;;;;0.40;0.40;;;;;;;;;;5077941;28;20032;-91
2021/09/30 19:47:47;;;;;;;0.43;0.40;;;;;;;;;;5095960;28;20062;-91
2021/09/30 19:50:13;;;;;;;1.95;1.85;;;;;;;;;;5081843;28;20047;-92
2021/09/30 19:55:15;;;;;;;0.63;0.63;;;;;;;;;;5404303;22;20109;-92
2021/09/30 19:57:40;;;;;;;0.40;0.40;;;;;;;;;;5082335;28;20020;-93
2021/09/30 20:00:07;;;;;;;0.30;0.30;;;;;;;;;;5100775;22;20040;-92
2021/09/30 20:02:36;;;;;;;5.68;1.02;;;;;;;;;;5071125;28;20020;-92
2021/09/30 20:05:02;;;;;;;0.32;0.32;;;;;;;;;;5073088;28;20036;-92
2021/09/30 20:07:29;;;;;;;0.30;0.30;;;;;;;;;;5081096;28;20031;-92
2021/09/30 20:09:55;;;;;;;0.55;0.55;;;;;;;;;;5656013;22;20417;-92
2021/09/30 20:12:22;;;;;;;3.40;0.65;;;;;;;;;;5255687;22;20076;-92
2021/09/30 20:14:48;;;;;;;0.40;0.40;;;;;;;;;;5080657;22;20065;-92
2021/09/30 20:17:16;;;;;;;0.50;0.50;;;;;;;;;;5078746;22;20045;-92
2021/09/30 20:27:10;;;;;;;;;;;;;;;;;;5034984;28;20080;-92
2021/09/30 20:29:36;;;;;;;8.47;0.60;;;;;;;;;;5070062;23;19949;-92
2021/09/30 20:32:05;;;;;;;0.70;0.70;;;;;;;;;;5174107;22;20732;-91
2021/09/30 20:34:30;;;;;;;1.60;1.50;;;;;;;;;;5383601;22;20056;-92
2021/09/30 20:37:00;;;;;;;0.55;0.55;;;;;;;;;;5271126;22;20100;-91
2021/09/30 20:39:26;;;;;;;0.95;0.95;;;;;;;;;;5103279;22;20049;-91
2021/09/30 20:41:53;;;;;;;0.40;0.40;;;;;;;;;;5089231;22;20056;-91
2021/09/30 20:46:52;;;;;;;0.40;0.40;;;;;;;;;;5062088;22;20403;-91
2021/09/30 20:54:26;;;;;;;0.68;0.68;;;;;;;;;;5128298;22;20060;-90
2021/09/30 20:56:54;;;;;;;0.30;0.30;;;;;;;;;;5057250;28;20024;-90
2021/09/30 20:59:20;;;;;;;1.27;1.05;;;;;;;;;;5186435;23;20049;-91
2021/09/30 21:01:46;;;;;;;0.50;0.50;;;;;;;;;;5192257;23;20043;-91
2021/09/30 21:09:09;;;;;;;0.60;0.60;;;;;;;;;;5034473;28;20049;-91
2021/09/30 21:11:35;;;;;;;0.40;0.40;;;;;;;;;;5063023;23;20067;-91
2021/09/30 21:19:09;;;;;;;0.40;0.40;;;;;;;;;;5060451;28;20053;-91
2021/09/30 21:21:34;;;;;;;0.40;0.40;;;;;;;;;;5141353;22;20028;-91
2021/09/30 21:24:00;;;;;;;0.47;0.47;;;;;;;;;;5088403;22;20328;-91
2021/09/30 21:26:26;;;;;;;0.55;0.55;;;;;;;;;;5211925;23;20130;-92
2021/09/30 21:31:16;;;;;;;0.40;0.40;;;;;;;;;;5140119;22;20040;-91
2021/09/30 21:33:44;;;;;;;4.50;1.50;;;;;;;;;;5122805;23;20032;-93
2021/09/30 21:36:10;;;;;;;0.60;0.60;;;;;;;;;;5057196;28;20033;-92
2021/09/30 21:41:14;;;;;;;1.27;0.63;;;;;;;;;;5105071;22;20147;-92
2021/09/30 21:43:41;;;;;;;0.40;0.40;;;;;;;;;;5095274;23;20061;-91
2021/09/30 21:51:10;;;;;;;0.50;0.50;;;;;;;;;;5220840;23;20042;-92
2021/09/30 21:56:07;;;;;;;0.40;0.40;;;;;;;;;;5150027;23;20151;-92
2021/09/30 22:20:43;;;;;;;0.40;0.40;;;;;;;;;;2017088;22;20430;-91
2021/09/30 22:33:18;;;;;;;0.40;0.40;;;;;;;;;;5077659;23;20048;-92
2021/09/30 22:35:46;;;;;;;0.50;0.50;;;;;;;;;;5061906;23;20081;-92
2021/09/30 22:38:15;;;;;;;0.40;0.40;;;;;;;;;;5059867;28;20036;-91
2021/09/30 22:40:41;;;;;;;0.55;0.55;;;;;;;;;;5059932;28;20048;-91
2021/09/30 22:43:06;;;;;;;6.28;1.30;;;;;;;;;;5061720;28;20048;-91
2021/09/30 22:45:33;;;;;;;6.18;1.98;;;;;;;;;;5083852;23;20041;-91
2021/09/30 22:50:55;;;;;;;3.05;1.63;;;;;;;;;;2226105;22;20251;-91
2021/09/30 22:58:50;;;;;;;0.32;0.32;;;;;;;;;;5319165;22;20544;-91
2021/09/30 23:03:52;;;;;;;0.40;0.40;;;;;;;;;;5082197;22;20060;-91
2021/09/30 23:09:04;;;;;;;0.45;0.45;;;;;;;;;;5094481;23;20048;-91
2021/09/30 23:11:31;;;;;;;0.45;0.45;;;;;;;;;;5060037;28;20106;-91
2021/09/30 23:14:05;;;;;;;0.40;0.40;;;;;;;;;;5120544;22;20050;-91
2021/09/30 23:16:31;;;;;;;0.30;0.30;;;;;;;;;;5098809;22;20890;-91
2021/09/30 23:18:57;;;;;;;1.00;1.00;;;;;;;;;;5215733;23;20114;-91
2021/09/30 23:23:55;;;;;;;0.40;0.40;;;;;;;;;;5093772;22;20131;-91
2021/09/30 23:26:23;;;;;;;0.40;0.40;;;;;;;;;;5054116;28;20782;-91
2021/09/30 23:28:49;;;;;;;0.52;0.45;;;;;;;;;;5162249;22;20060;-91
2021/09/30 23:39:29;;;;;;;0.70;0.70;;;;;;;;;;3081874;22;21340;-91
2021/09/30 23:41:59;;;;;;;0.68;0.68;;;;;;;;;;5224161;22;20015;-92
2021/09/30 23:44:31;;;;;;;0.85;0.85;;;;;;;;;;5180827;22;20053;-91
2021/09/30 23:52:07;;;;;;;0.60;0.60;;;;;;;;;;5022920;28;20483;-92
2021/09/30 23:54:34;;;;;;;0.40;0.40;;;;;;;;;;5030981;22;20052;-92
2021/09/30 23:59:33;;;;;;;1.20;1.15;;;;;;;;;;5038805;28;20072;-92
